Haverhill, Massachusetts
Traffic Map
Current Weather Conditions
Haverhill, Massachusetts
Clear
Clear
47°
Feels Like: 44°
Wind Chill: 44° Ceiling: Unl
Heat Index: 47° Visibility: 10mi
Dew Point: 31° Wind: 6mph
Humidity: 54% Direction: 350° (N)
Pressure: 30.2in Gusts: 0mph
Raw Report DataKLWM 242354Z 35005KT 10SM CLR 08/M01 A3020 RMK AO2 SLP228 T00831006 10117 20083 51025
Traffic Incident Summary
Active as of:
Severity:
Category:
InformationThere was an issue retrieving the traffic information for this location. Please try a different location or try again shortly.
Advertisements